sensor_id;sensor_type;location;lat;lon;timestamp;pressure;altitude;pressure_sealevel;temperature;humidity
46583;BME280;32309;48.858;8.252;2023-04-01T00:01:20;98969.00;;;9.21;78.90
46583;BME280;32309;48.858;8.252;2023-04-01T00:03:29;98970.63;;;9.22;79.23
46583;BME280;32309;48.858;8.252;2023-04-01T00:05:29;98974.16;;;9.21;79.24
46583;BME280;32309;48.858;8.252;2023-04-01T00:07:30;98976.41;;;9.26;79.19
46583;BME280;32309;48.858;8.252;2023-04-01T00:09:30;98986.63;;;9.27;79.73
46583;BME280;32309;48.858;8.252;2023-04-01T00:11:31;98990.06;;;9.28;79.00
46583;BME280;32309;48.858;8.252;2023-04-01T00:13:32;98985.59;;;9.30;79.71
46583;BME280;32309;48.858;8.252;2023-04-01T00:15:40;98971.84;;;9.29;79.00
46583;BME280;32309;48.858;8.252;2023-04-01T00:17:40;98977.81;;;9.30;79.87
46583;BME280;32309;48.858;8.252;2023-04-01T00:19:41;98982.88;;;9.31;79.42
46583;BME280;32309;48.858;8.252;2023-04-01T00:21:41;98980.41;;;9.30;80.17
46583;BME280;32309;48.858;8.252;2023-04-01T00:23:41;98984.97;;;9.26;79.97
46583;BME280;32309;48.858;8.252;2023-04-01T00:25:42;98975.78;;;9.22;80.56
46583;BME280;32309;48.858;8.252;2023-04-01T00:27:46;98980.03;;;9.23;80.43
46583;BME280;32309;48.858;8.252;2023-04-01T00:29:50;98972.50;;;9.20;80.40
46583;BME280;32309;48.858;8.252;2023-04-01T00:31:50;98975.09;;;9.20;80.22
46583;BME280;32309;48.858;8.252;2023-04-01T00:33:51;98972.50;;;9.20;80.38
46583;BME280;32309;48.858;8.252;2023-04-01T00:35:51;98966.63;;;9.18;80.89
46583;BME280;32309;48.858;8.252;2023-04-01T00:37:52;98971.09;;;9.16;80.68
46583;BME280;32309;48.858;8.252;2023-04-01T00:39:57;98961.69;;;9.15;80.88
46583;BME280;32309;48.858;8.252;2023-04-01T00:41:57;98965.06;;;9.15;80.48
46583;BME280;32309;48.858;8.252;2023-04-01T00:48:45;98966.00;;;9.14;80.60
46583;BME280;32309;48.858;8.252;2023-04-01T00:51:01;98967.78;;;9.14;80.56
46583;BME280;32309;48.858;8.252;2023-04-01T00:53:06;98974.00;;;9.11;80.43
46583;BME280;32309;48.858;8.252;2023-04-01T00:55:09;98978.13;;;9.14;79.95
46583;BME280;32309;48.858;8.252;2023-04-01T00:57:16;98977.19;;;9.15;80.34
46583;BME280;32309;48.858;8.252;2023-04-01T00:59:31;98975.41;;;9.15;80.36
46583;BME280;32309;48.858;8.252;2023-04-01T01:01:50;98966.13;;;9.13;80.19
46583;BME280;32309;48.858;8.252;2023-04-01T01:03:51;98972.44;;;9.09;80.02
46583;BME280;32309;48.858;8.252;2023-04-01T01:08:37;98983.53;;;9.11;80.68
46583;BME280;32309;48.858;8.252;2023-04-01T01:10:44;98972.44;;;9.09;80.16
46583;BME280;32309;48.858;8.252;2023-04-01T01:15:35;98964.69;;;9.09;80.69
46583;BME280;32309;48.858;8.252;2023-04-01T01:17:51;98970.22;;;9.04;80.63
46583;BME280;32309;48.858;8.252;2023-04-01T01:22:29;98962.34;;;9.06;79.99
46583;BME280;32309;48.858;8.252;2023-04-01T01:24:53;98962.53;;;9.03;79.76
46583;BME280;32309;48.858;8.252;2023-04-01T01:27:09;98965.97;;;9.03;79.46
46583;BME280;32309;48.858;8.252;2023-04-01T01:34:12;98953.00;;;8.92;79.26
46583;BME280;32309;48.858;8.252;2023-04-01T01:36:34;98957.00;;;8.96;78.78
46583;BME280;32309;48.858;8.252;2023-04-01T01:38:36;98959.81;;;8.93;78.54
46583;BME280;32309;48.858;8.252;2023-04-01T01:40:39;98950.63;;;8.89;77.50
46583;BME280;32309;48.858;8.252;2023-04-01T01:42:44;98948.16;;;8.87;77.98
46583;BME280;32309;48.858;8.252;2023-04-01T01:44:48;98951.56;;;8.88;77.63
46583;BME280;32309;48.858;8.252;2023-04-01T01:46:53;98954.03;;;8.89;77.62
46583;BME280;32309;48.858;8.252;2023-04-01T01:48:58;98934.31;;;8.88;77.61
46583;BME280;32309;48.858;8.252;2023-04-01T01:51:04;98951.69;;;8.86;77.29
46583;BME280;32309;48.858;8.252;2023-04-01T01:53:07;98932.88;;;8.84;76.92
46583;BME280;32309;48.858;8.252;2023-04-01T01:55:26;98940.63;;;8.84;76.86
46583;BME280;32309;48.858;8.252;2023-04-01T01:57:33;98940.41;;;8.87;77.01
46583;BME280;32309;48.858;8.252;2023-04-01T01:59:40;98931.81;;;8.87;77.33
46583;BME280;32309;48.858;8.252;2023-04-01T02:01:45;98937.09;;;8.85;76.83
46583;BME280;32309;48.858;8.252;2023-04-01T02:03:50;98943.13;;;8.86;76.87
46583;BME280;32309;48.858;8.252;2023-04-01T02:05:53;98931.25;;;8.83;76.40
46583;BME280;32309;48.858;8.252;2023-04-01T02:08:09;98937.34;;;8.82;76.95
46583;BME280;32309;48.858;8.252;2023-04-01T02:10:14;98933.91;;;8.81;76.82
46583;BME280;32309;48.858;8.252;2023-04-01T02:12:15;98935.06;;;8.77;77.19
46583;BME280;32309;48.858;8.252;2023-04-01T02:14:18;98923.91;;;8.77;77.35
46583;BME280;32309;48.858;8.252;2023-04-01T02:16:31;98921.66;;;8.72;77.32
46583;BME280;32309;48.858;8.252;2023-04-01T02:18:35;98933.53;;;8.75;77.30
46583;BME280;32309;48.858;8.252;2023-04-01T02:20:38;98941.19;;;8.76;77.61
46583;BME280;32309;48.858;8.252;2023-04-01T02:22:40;98938.69;;;8.75;77.34
46583;BME280;32309;48.858;8.252;2023-04-01T02:24:45;98946.34;;;8.76;76.85
46583;BME280;32309;48.858;8.252;2023-04-01T02:26:46;98942.00;;;8.77;76.99
46583;BME280;32309;48.858;8.252;2023-04-01T02:28:46;98935.91;;;8.78;77.08
46583;BME280;32309;48.858;8.252;2023-04-01T02:30:48;98940.16;;;8.79;76.93
46583;BME280;32309;48.858;8.252;2023-04-01T02:32:50;98950.47;;;8.79;76.92
46583;BME280;32309;48.858;8.252;2023-04-01T02:34:51;98933.53;;;8.75;77.05
46583;BME280;32309;48.858;8.252;2023-04-01T02:36:51;98942.13;;;8.75;76.91
46583;BME280;32309;48.858;8.252;2023-04-01T02:38:53;98943.78;;;8.76;77.10
46583;BME280;32309;48.858;8.252;2023-04-01T02:40:58;98947.16;;;8.77;77.33
46583;BME280;32309;48.858;8.252;2023-04-01T02:43:00;98948.22;;;8.74;76.83
46583;BME280;32309;48.858;8.252;2023-04-01T02:45:01;98943.97;;;8.73;77.38
46583;BME280;32309;48.858;8.252;2023-04-01T02:47:01;98950.19;;;8.71;78.08
46583;BME280;32309;48.858;8.252;2023-04-01T02:49:02;98945.94;;;8.70;77.45
46583;BME280;32309;48.858;8.252;2023-04-01T02:51:03;98938.31;;;8.68;77.53
46583;BME280;32309;48.858;8.252;2023-04-01T02:53:03;98938.31;;;8.68;77.77
46583;BME280;32309;48.858;8.252;2023-04-01T02:55:06;98923.03;;;8.65;77.83
46583;BME280;32309;48.858;8.252;2023-04-01T02:57:06;98941.13;;;8.65;77.25
46583;BME280;32309;48.858;8.252;2023-04-01T02:59:07;98943.69;;;8.65;77.70
46583;BME280;32309;48.858;8.252;2023-04-01T03:01:07;98942.88;;;8.64;77.57
46583;BME280;32309;48.858;8.252;2023-04-01T03:03:08;98935.03;;;8.66;77.29
46583;BME280;32309;48.858;8.252;2023-04-01T03:05:08;98935.84;;;8.66;77.00
46583;BME280;32309;48.858;8.252;2023-04-01T03:07:09;98941.13;;;8.65;76.37
46583;BME280;32309;48.858;8.252;2023-04-01T03:09:10;98936.75;;;8.65;76.31
46583;BME280;32309;48.858;8.252;2023-04-01T03:11:10;98939.25;;;8.67;76.52
46583;BME280;32309;48.858;8.252;2023-04-01T03:13:12;98935.59;;;8.70;76.11
46583;BME280;32309;48.858;8.252;2023-04-01T03:15:15;98942.44;;;8.71;76.45
46583;BME280;32309;48.858;8.252;2023-04-01T03:17:16;98937.38;;;8.69;76.77
46583;BME280;32309;48.858;8.252;2023-04-01T03:19:16;98938.19;;;8.70;76.89
46583;BME280;32309;48.858;8.252;2023-04-01T03:21:17;98939.97;;;8.69;77.19
46583;BME280;32309;48.858;8.252;2023-04-01T03:23:23;98942.66;;;8.68;76.75
46583;BME280;32309;48.858;8.252;2023-04-01T03:25:24;98931.59;;;8.65;76.30
46583;BME280;32309;48.858;8.252;2023-04-01T03:27:24;98931.41;;;8.69;76.94
46583;BME280;32309;48.858;8.252;2023-04-01T03:29:25;98939.16;;;8.69;76.57
46583;BME280;32309;48.858;8.252;2023-04-01T03:31:25;98940.69;;;8.71;76.25
46583;BME280;32309;48.858;8.252;2023-04-01T03:33:25;98941.63;;;8.70;75.86
46583;BME280;32309;48.858;8.252;2023-04-01T03:35:26;98936.34;;;8.72;76.44
46583;BME280;32309;48.858;8.252;2023-04-01T03:37:27;98936.22;;;8.73;76.02
46583;BME280;32309;48.858;8.252;2023-04-01T03:39:27;98939.66;;;8.74;75.61
46583;BME280;32309;48.858;8.252;2023-04-01T03:41:27;98930.13;;;8.74;75.83
46583;BME280;32309;48.858;8.252;2023-04-01T03:43:28;98926.63;;;8.75;75.89
46583;BME280;32309;48.858;8.252;2023-04-01T03:45:28;98924.97;;;8.74;75.62
46583;BME280;32309;48.858;8.252;2023-04-01T03:47:28;98937.75;;;8.76;75.66
46583;BME280;32309;48.858;8.252;2023-04-01T03:49:29;98934.13;;;8.78;75.85
46583;BME280;32309;48.858;8.252;2023-04-01T03:51:29;98928.16;;;8.78;76.00
46583;BME280;32309;48.858;8.252;2023-04-01T03:53:30;98934.13;;;8.78;76.37
46583;BME280;32309;48.858;8.252;2023-04-01T03:55:30;98930.63;;;8.79;75.83
46583;BME280;32309;48.858;8.252;2023-04-01T03:57:31;98931.31;;;8.81;76.03
46583;BME280;32309;48.858;8.252;2023-04-01T03:59:31;98925.94;;;8.85;76.16
46583;BME280;32309;48.858;8.252;2023-04-01T04:01:32;98929.22;;;8.87;76.05
46583;BME280;32309;48.858;8.252;2023-04-01T04:03:33;98925.84;;;8.86;75.74
46583;BME280;32309;48.858;8.252;2023-04-01T04:05:33;98921.47;;;8.87;76.14
46583;BME280;32309;48.858;8.252;2023-04-01T04:07:34;98931.72;;;8.88;75.88
46583;BME280;32309;48.858;8.252;2023-04-01T04:09:35;98919.63;;;8.89;76.11
46583;BME280;32309;48.858;8.252;2023-04-01T04:11:35;98906.59;;;8.90;75.68
46583;BME280;32309;48.858;8.252;2023-04-01T04:13:35;98924.56;;;8.92;76.31
46583;BME280;32309;48.858;8.252;2023-04-01T04:15:36;98915.88;;;8.93;75.93
46583;BME280;32309;48.858;8.252;2023-04-01T04:17:36;98919.28;;;8.93;75.88
46583;BME280;32309;48.858;8.252;2023-04-01T04:19:36;98922.72;;;8.94;75.70
46583;BME280;32309;48.858;8.252;2023-04-01T04:21:37;98920.00;;;8.95;75.48
46583;BME280;32309;48.858;8.252;2023-04-01T04:23:37;98919.78;;;8.98;75.47
46583;BME280;32309;48.858;8.252;2023-04-01T04:25:37;98922.34;;;8.98;75.64
46583;BME280;32309;48.858;8.252;2023-04-01T04:27:37;98913.78;;;8.98;75.17
46583;BME280;32309;48.858;8.252;2023-04-01T04:29:38;98920.50;;;9.01;75.58
46583;BME280;32309;48.858;8.252;2023-04-01T04:31:38;98917.00;;;9.02;75.21
46583;BME280;32309;48.858;8.252;2023-04-01T04:33:38;98921.31;;;9.01;75.39
46583;BME280;32309;48.858;8.252;2023-04-01T04:35:38;98922.16;;;9.02;75.25
46583;BME280;32309;48.858;8.252;2023-04-01T04:37:39;98915.44;;;8.99;75.19
46583;BME280;32309;48.858;8.252;2023-04-01T04:39:39;98917.91;;;9.01;75.08
46583;BME280;32309;48.858;8.252;2023-04-01T04:41:39;98918.03;;;8.99;75.14
46583;BME280;32309;48.858;8.252;2023-04-01T04:43:40;98923.91;;;9.01;74.75
46583;BME280;32309;48.858;8.252;2023-04-01T04:45:41;98905.00;;;9.01;74.59
46583;BME280;32309;48.858;8.252;2023-04-01T04:47:42;98907.81;;;8.97;74.78
46583;BME280;32309;48.858;8.252;2023-04-01T04:49:42;98905.09;;;8.99;75.29
46583;BME280;32309;48.858;8.252;2023-04-01T04:51:42;98894.78;;;8.99;74.47
46583;BME280;32309;48.858;8.252;2023-04-01T04:53:43;98889.00;;;8.95;74.53
46583;BME280;32309;48.858;8.252;2023-04-01T04:55:44;98908.75;;;8.96;74.81
46583;BME280;32309;48.858;8.252;2023-04-01T04:57:45;98896.75;;;8.95;74.94
46583;BME280;32309;48.858;8.252;2023-04-01T04:59:46;98899.56;;;8.92;75.10
46583;BME280;32309;48.858;8.252;2023-04-01T05:01:46;98887.47;;;8.93;74.85
46583;BME280;32309;48.858;8.252;2023-04-01T05:03:46;98896.25;;;8.90;74.17
46583;BME280;32309;48.858;8.252;2023-04-01T05:05:50;98895.22;;;8.93;74.04
46583;BME280;32309;48.858;8.252;2023-04-01T05:07:52;98891.09;;;8.90;73.48
46583;BME280;32309;48.858;8.252;2023-04-01T05:09:52;98887.81;;;8.88;73.11
46583;BME280;32309;48.858;8.252;2023-04-01T05:11:52;98893.66;;;8.90;73.54
46583;BME280;32309;48.858;8.252;2023-04-01T05:13:53;98894.59;;;8.89;73.77
46583;BME280;32309;48.858;8.252;2023-04-01T05:15:53;98893.06;;;8.87;73.33
46583;BME280;32309;48.858;8.252;2023-04-01T05:17:54;98894.72;;;8.88;73.36
46583;BME280;32309;48.858;8.252;2023-04-01T05:19:54;98886.97;;;8.88;73.96
46583;BME280;32309;48.858;8.252;2023-04-01T05:21:54;98879.34;;;8.86;74.36
46583;BME280;32309;48.858;8.252;2023-04-01T05:23:54;98883.56;;;8.87;74.02
46583;BME280;32309;48.858;8.252;2023-04-01T05:25:55;98894.03;;;8.86;74.34
46583;BME280;32309;48.858;8.252;2023-04-01T05:27:56;98888.84;;;8.86;74.49
46583;BME280;32309;48.858;8.252;2023-04-01T05:29:57;98887.19;;;8.85;75.00
46583;BME280;32309;48.858;8.252;2023-04-01T05:31:58;98891.63;;;8.82;75.82
46583;BME280;32309;48.858;8.252;2023-04-01T05:33:58;98902.22;;;8.79;76.03
46583;BME280;32309;48.858;8.252;2023-04-01T05:36:13;98893.53;;;8.80;76.46
46583;BME280;32309;48.858;8.252;2023-04-01T05:38:14;98892.09;;;8.76;77.34
46583;BME280;32309;48.858;8.252;2023-04-01T05:40:14;98894.88;;;8.73;77.18
46583;BME280;32309;48.858;8.252;2023-04-01T05:42:15;98897.69;;;8.70;78.78
46583;BME280;32309;48.858;8.252;2023-04-01T05:44:15;98892.03;;;8.65;78.66
46583;BME280;32309;48.858;8.252;2023-04-01T05:46:16;98886.25;;;8.61;78.83
46583;BME280;32309;48.858;8.252;2023-04-01T05:48:16;98894.34;;;8.57;79.36
46583;BME280;32309;48.858;8.252;2023-04-01T05:50:16;98891.03;;;8.55;79.96
46583;BME280;32309;48.858;8.252;2023-04-01T05:52:17;98889.38;;;8.54;80.20
46583;BME280;32309;48.858;8.252;2023-04-01T05:54:17;98888.81;;;8.50;79.91
46583;BME280;32309;48.858;8.252;2023-04-01T05:56:17;98892.44;;;8.47;80.41
46583;BME280;32309;48.858;8.252;2023-04-01T05:58:18;98881.38;;;8.45;80.54
46583;BME280;32309;48.858;8.252;2023-04-01T06:00:18;98885.88;;;8.42;80.75
46583;BME280;32309;48.858;8.252;2023-04-01T06:02:19;98878.97;;;8.42;80.64
46583;BME280;32309;48.858;8.252;2023-04-01T06:04:20;98882.25;;;8.44;79.89
46583;BME280;32309;48.858;8.252;2023-04-01T06:06:24;98880.53;;;8.45;80.06
46583;BME280;32309;48.858;8.252;2023-04-01T06:08:26;98879.63;;;8.46;80.08
46583;BME280;32309;48.858;8.252;2023-04-01T06:10:50;98887.38;;;8.46;80.83
46583;BME280;32309;48.858;8.252;2023-04-01T06:13:09;98891.69;;;8.45;79.96
46583;BME280;32309;48.858;8.252;2023-04-01T06:15:33;98895.16;;;8.44;81.55
46583;BME280;32309;48.858;8.252;2023-04-01T06:18:03;98895.16;;;8.44;81.60
46583;BME280;32309;48.858;8.252;2023-04-01T06:20:25;98888.38;;;8.43;81.87
46583;BME280;32309;48.858;8.252;2023-04-01T06:27:40;98902.53;;;8.38;83.64
46583;BME280;32309;48.858;8.252;2023-04-01T06:29:46;98898.28;;;8.37;84.44
46583;BME280;32309;48.858;8.252;2023-04-01T06:32:05;98902.75;;;8.35;84.67
46583;BME280;32309;48.858;8.252;2023-04-01T06:45:46;98921.97;;;8.30;86.11
46583;BME280;32309;48.858;8.252;2023-04-01T06:54:24;98914.63;;;8.37;86.18
46583;BME280;32309;48.858;8.252;2023-04-01T06:56:31;98914.50;;;8.39;85.96
46583;BME280;32309;48.858;8.252;2023-04-01T06:58:36;98920.41;;;8.41;86.02
46583;BME280;32309;48.858;8.252;2023-04-01T07:00:42;98913.34;;;8.43;87.07
46583;BME280;32309;48.858;8.252;2023-04-01T07:02:48;98917.41;;;8.47;86.53
46583;BME280;32309;48.858;8.252;2023-04-01T07:04:55;98913.66;;;8.51;85.37
46583;BME280;32309;48.858;8.252;2023-04-01T07:07:19;98919.56;;;8.53;86.17
46583;BME280;32309;48.858;8.252;2023-04-01T07:09:49;98919.44;;;8.55;86.09
46583;BME280;32309;48.858;8.252;2023-04-01T07:11:56;98909.97;;;8.55;87.45
46583;BME280;32309;48.858;8.252;2023-04-01T07:14:01;98917.78;;;8.54;87.40
46583;BME280;32309;48.858;8.252;2023-04-01T07:16:08;98921.91;;;8.56;87.86
46583;BME280;32309;48.858;8.252;2023-04-01T07:18:16;98924.50;;;8.56;87.75
46583;BME280;32309;48.858;8.252;2023-04-01T07:20:39;98924.63;;;8.55;88.10
46583;BME280;32309;48.858;8.252;2023-04-01T07:22:44;98930.69;;;8.54;86.79
46583;BME280;32309;48.858;8.252;2023-04-01T07:24:47;98934.94;;;8.55;87.86
46583;BME280;32309;48.858;8.252;2023-04-01T07:26:49;98935.66;;;8.57;87.38
46583;BME280;32309;48.858;8.252;2023-04-01T07:28:53;98945.88;;;8.58;87.18
46583;BME280;32309;48.858;8.252;2023-04-01T07:31:13;98940.63;;;8.60;87.26
46583;BME280;32309;48.858;8.252;2023-04-01T07:33:39;98943.53;;;8.55;88.39
46583;BME280;32309;48.858;8.252;2023-04-01T07:38:49;98958.53;;;8.50;88.62
46583;BME280;32309;48.858;8.252;2023-04-01T07:43:45;98964.00;;;8.45;89.71
46583;BME280;32309;48.858;8.252;2023-04-01T07:48:19;98966.78;;;8.42;88.55
46583;BME280;32309;48.858;8.252;2023-04-01T07:50:30;98949.84;;;8.38;89.64
46583;BME280;32309;48.858;8.252;2023-04-01T07:54:39;98960.06;;;8.40;90.18
46583;BME280;32309;48.858;8.252;2023-04-01T07:56:48;98945.28;;;8.42;88.62
46583;BME280;32309;48.858;8.252;2023-04-01T07:58:55;98945.19;;;8.43;89.16
46583;BME280;32309;48.858;8.252;2023-04-01T08:03:43;98940.44;;;8.50;88.67
46583;BME280;32309;48.858;8.252;2023-04-01T08:05:46;98942.81;;;8.53;89.79
46583;BME280;32309;48.858;8.252;2023-04-01T08:10:30;98947.81;;;8.68;89.90
46583;BME280;32309;48.858;8.252;2023-04-01T08:15:11;98960.41;;;8.72;90.06
46583;BME280;32309;48.858;8.252;2023-04-01T08:17:16;98959.16;;;8.78;89.79
46583;BME280;32309;48.858;8.252;2023-04-01T08:21:52;98963.97;;;8.82;89.52
46583;BME280;32309;48.858;8.252;2023-04-01T08:24:00;98961.09;;;8.87;90.47
46583;BME280;32309;48.858;8.252;2023-04-01T08:26:26;98957.47;;;8.90;89.04
46583;BME280;32309;48.858;8.252;2023-04-01T08:28:46;98962.50;;;8.91;90.66
46583;BME280;32309;48.858;8.252;2023-04-01T08:31:04;98962.16;;;8.96;89.76
46583;BME280;32309;48.858;8.252;2023-04-01T08:33:16;98964.75;;;8.96;90.37
46583;BME280;32309;48.858;8.252;2023-04-01T08:35:28;98978.63;;;8.95;90.15
46583;BME280;32309;48.858;8.252;2023-04-01T08:37:32;98970.88;;;8.95;89.58
46583;BME280;32309;48.858;8.252;2023-04-01T08:39:37;98972.97;;;8.90;90.41
46583;BME280;32309;48.858;8.252;2023-04-01T08:48:48;98988.97;;;8.95;90.05
46583;BME280;32309;48.858;8.252;2023-04-01T08:51:20;98994.13;;;8.95;90.01
46583;BME280;32309;48.858;8.252;2023-04-01T08:58:51;98986.25;;;8.96;90.25
46583;BME280;32309;48.858;8.252;2023-04-01T09:05:46;98989.78;;;8.95;90.01
46583;BME280;32309;48.858;8.252;2023-04-01T09:08:05;98998.34;;;8.96;91.22
46583;BME280;32309;48.858;8.252;2023-04-01T09:10:15;98990.13;;;8.91;90.76
46583;BME280;32309;48.858;8.252;2023-04-01T09:12:51;98993.63;;;8.90;91.98
46583;BME280;32309;48.858;8.252;2023-04-01T09:14:48;98994.69;;;8.87;92.03
46583;BME280;32309;48.858;8.252;2023-04-01T09:19:43;98987.97;;;8.85;91.86
46583;BME280;32309;48.858;8.252;2023-04-01T09:22:22;98994.44;;;8.90;91.70
46583;BME280;32309;48.858;8.252;2023-04-01T09:24:41;98996.59;;;8.96;91.01
46583;BME280;32309;48.858;8.252;2023-04-01T09:27:05;98998.03;;;9.01;91.08
46583;BME280;32309;48.858;8.252;2023-04-01T09:39:11;98998.56;;;9.17;90.68
46583;BME280;32309;48.858;8.252;2023-04-01T09:50:27;99002.63;;;9.32;90.77
46583;BME280;32309;48.858;8.252;2023-04-01T09:57:21;99008.97;;;9.28;90.21
46583;BME280;32309;48.858;8.252;2023-04-01T10:10:00;99008.16;;;9.28;91.27
46583;BME280;32309;48.858;8.252;2023-04-01T10:17:03;99008.28;;;9.38;91.24
46583;BME280;32309;48.858;8.252;2023-04-01T10:22:17;99004.44;;;9.43;91.19
46583;BME280;32309;48.858;8.252;2023-04-01T10:31:42;99017.22;;;9.33;92.07
46583;BME280;32309;48.858;8.252;2023-04-01T10:44:11;99034.09;;;9.26;92.75
46583;BME280;32309;48.858;8.252;2023-04-01T10:46:47;99041.38;;;9.21;93.39
46583;BME280;32309;48.858;8.252;2023-04-01T11:00:18;99040.66;;;9.19;94.13
46583;BME280;32309;48.858;8.252;2023-04-01T15:45:40;99175.63;;;9.48;93.33
46583;BME280;32309;48.858;8.252;2023-04-01T16:04:40;99181.81;;;9.59;95.75
46583;BME280;32309;48.858;8.252;2023-04-01T16:22:05;99155.13;;;9.58;94.73
46583;BME280;32309;48.858;8.252;2023-04-01T16:24:31;99163.69;;;9.59;93.69
46583;BME280;32309;48.858;8.252;2023-04-01T16:26:40;99158.75;;;9.56;93.91
46583;BME280;32309;48.858;8.252;2023-04-01T16:33:24;99175.31;;;9.53;93.28
46583;BME280;32309;48.858;8.252;2023-04-01T16:44:47;99217.03;;;9.36;93.04
46583;BME280;32309;48.858;8.252;2023-04-01T16:47:14;99226.66;;;9.33;93.22
46583;BME280;32309;48.858;8.252;2023-04-01T16:49:17;99250.75;;;9.34;93.47
46583;BME280;32309;48.858;8.252;2023-04-01T16:51:23;99262.25;;;9.30;94.31
46583;BME280;32309;48.858;8.252;2023-04-01T16:55:50;99239.94;;;9.16;94.27
46583;BME280;32309;48.858;8.252;2023-04-01T16:57:56;99229.06;;;9.11;92.96
46583;BME280;32309;48.858;8.252;2023-04-01T17:02:21;99232.28;;;9.02;94.58
46583;BME280;32309;48.858;8.252;2023-04-01T17:07:11;99239.31;;;8.99;94.53
46583;BME280;32309;48.858;8.252;2023-04-01T17:09:39;99234.88;;;9.02;94.52
46583;BME280;32309;48.858;8.252;2023-04-01T17:11:54;99237.47;;;9.02;93.53
46583;BME280;32309;48.858;8.252;2023-04-01T17:20:32;99247.16;;;8.98;91.85
46583;BME280;32309;48.858;8.252;2023-04-01T17:22:40;99251.41;;;8.99;92.31
46583;BME280;32309;48.858;8.252;2023-04-01T17:27:24;99267.09;;;8.96;92.31
46583;BME280;32309;48.858;8.252;2023-04-01T17:34:41;99262.25;;;8.91;93.14
46583;BME280;32309;48.858;8.252;2023-04-01T17:41:57;99279.94;;;8.85;93.64
46583;BME280;32309;48.858;8.252;2023-04-01T17:48:38;99284.78;;;8.76;94.33
46583;BME280;32309;48.858;8.252;2023-04-01T17:52:59;99292.00;;;8.71;93.84
46583;BME280;32309;48.858;8.252;2023-04-01T18:21:17;99319.50;;;8.45;94.30
46583;BME280;32309;48.858;8.252;2023-04-01T18:25:37;99312.75;;;8.42;93.69
46583;BME280;32309;48.858;8.252;2023-04-01T18:27:52;99321.44;;;8.41;93.39
46583;BME280;32309;48.858;8.252;2023-04-01T18:30:20;99320.63;;;8.41;94.19
46583;BME280;32309;48.858;8.252;2023-04-01T18:32:29;99315.44;;;8.41;94.19
46583;BME280;32309;48.858;8.252;2023-04-01T18:34:52;99318.03;;;8.41;93.50
46583;BME280;32309;48.858;8.252;2023-04-01T18:37:00;99323.19;;;8.41;93.64
46583;BME280;32309;48.858;8.252;2023-04-01T18:41:47;99328.25;;;8.42;94.28
46583;BME280;32309;48.858;8.252;2023-04-01T18:51:26;99321.31;;;8.43;92.80
46583;BME280;32309;48.858;8.252;2023-04-01T18:53:35;99323.91;;;8.43;93.05
46583;BME280;32309;48.858;8.252;2023-04-01T18:55:47;99329.06;;;8.43;92.79
46583;BME280;32309;48.858;8.252;2023-04-01T18:57:51;99324.81;;;8.42;92.95
46583;BME280;32309;48.858;8.252;2023-04-01T19:00:02;99325.69;;;8.42;93.12
46583;BME280;32309;48.858;8.252;2023-04-01T19:08:59;99336.72;;;8.44;92.99
46583;BME280;32309;48.858;8.252;2023-04-01T19:14:16;99346.81;;;8.49;92.52
46583;BME280;32309;48.858;8.252;2023-04-01T19:25:38;99353.22;;;8.56;92.39
46583;BME280;32309;48.858;8.252;2023-04-01T19:27:50;99361.81;;;8.57;92.92
46583;BME280;32309;48.858;8.252;2023-04-01T19:29:58;99366.88;;;8.58;92.92
46583;BME280;32309;48.858;8.252;2023-04-01T19:32:32;99375.53;;;8.57;92.87
46583;BME280;32309;48.858;8.252;2023-04-01T19:41:46;99370.28;;;8.59;92.70
46583;BME280;32309;48.858;8.252;2023-04-01T19:46:32;99377.31;;;8.57;92.76
46583;BME280;32309;48.858;8.252;2023-04-01T19:51:11;99381.09;;;8.51;92.08
46583;BME280;32309;48.858;8.252;2023-04-01T19:53:31;99384.63;;;8.50;92.53
46583;BME280;32309;48.858;8.252;2023-04-01T19:55:48;99383.66;;;8.51;92.66
46583;BME280;32309;48.858;8.252;2023-04-01T19:58:05;99387.28;;;8.48;92.82
46583;BME280;32309;48.858;8.252;2023-04-01T20:00:24;99388.94;;;8.49;92.25
46583;BME280;32309;48.858;8.252;2023-04-01T20:02:50;99388.22;;;8.47;92.85
46583;BME280;32309;48.858;8.252;2023-04-01T20:04:56;99393.38;;;8.47;92.59
46583;BME280;32309;48.858;8.252;2023-04-01T20:07:19;99394.19;;;8.48;92.40
46583;BME280;32309;48.858;8.252;2023-04-01T20:10:23;99394.47;;;8.43;93.42
46583;BME280;32309;48.858;8.252;2023-04-01T20:12:25;99397.06;;;8.43;93.31
46583;BME280;32309;48.858;8.252;2023-04-01T20:14:41;99402.50;;;8.39;93.65
46583;BME280;32309;48.858;8.252;2023-04-01T20:18:59;99417.25;;;8.37;93.41
46583;BME280;32309;48.858;8.252;2023-04-01T20:21:03;99415.72;;;8.34;93.43
46583;BME280;32309;48.858;8.252;2023-04-01T20:25:49;99414.16;;;8.31;93.28
46583;BME280;32309;48.858;8.252;2023-04-01T20:27:58;99428.78;;;8.31;93.09
46583;BME280;32309;48.858;8.252;2023-04-01T20:39:59;99438.41;;;8.29;92.37
46583;BME280;32309;48.858;8.252;2023-04-01T20:49:33;99447.88;;;8.28;93.12
46583;BME280;32309;48.858;8.252;2023-04-01T20:56:32;99449.75;;;8.26;92.90
46583;BME280;32309;48.858;8.252;2023-04-01T21:00:58;99449.75;;;8.26;92.60
46583;BME280;32309;48.858;8.252;2023-04-01T21:03:11;99460.06;;;8.26;92.17
46583;BME280;32309;48.858;8.252;2023-04-01T21:08:11;99452.13;;;8.29;91.16
46583;BME280;32309;48.858;8.252;2023-04-01T21:12:36;99461.63;;;8.29;91.02
46583;BME280;32309;48.858;8.252;2023-04-01T21:14:51;99454.59;;;8.31;91.00
46583;BME280;32309;48.858;8.252;2023-04-01T21:17:14;99462.34;;;8.31;91.26
46583;BME280;32309;48.858;8.252;2023-04-01T21:19:26;99452.13;;;8.29;90.69
46583;BME280;32309;48.858;8.252;2023-04-01T21:23:56;99458.94;;;8.30;89.99
46583;BME280;32309;48.858;8.252;2023-04-01T21:28:29;99464.94;;;8.31;89.70
46583;BME280;32309;48.858;8.252;2023-04-01T21:37:48;99469.28;;;8.30;89.26
46583;BME280;32309;48.858;8.252;2023-04-01T21:42:22;99470.28;;;8.28;89.13
46583;BME280;32309;48.858;8.252;2023-04-01T21:44:48;99471.22;;;8.27;88.87
46583;BME280;32309;48.858;8.252;2023-04-01T21:47:07;99483.28;;;8.26;89.26
46583;BME280;32309;48.858;8.252;2023-04-01T21:54:50;99481.44;;;8.28;88.59
46583;BME280;32309;48.858;8.252;2023-04-01T22:08:31;99484.78;;;8.30;88.45
46583;BME280;32309;48.858;8.252;2023-04-01T22:12:50;99495.09;;;8.30;89.14
46583;BME280;32309;48.858;8.252;2023-04-01T22:15:16;99484.78;;;8.30;89.19